sensor_id;sensor_type;location;lat;lon;timestamp;P1;durP1;ratioP1;P2;durP2;ratioP2
51915;SDS011;37942;53.218;6.548;2022-11-15T08:34:32;92.20;;;49.28;;
51915;SDS011;37942;53.218;6.548;2022-11-15T08:36:58;85.57;;;48.25;;
51915;SDS011;37942;53.218;6.548;2022-11-15T08:39:24;81.97;;;48.58;;
51915;SDS011;37942;53.218;6.548;2022-11-15T08:41:50;83.20;;;46.15;;
51915;SDS011;37942;53.218;6.548;2022-11-15T08:44:16;83.70;;;45.58;;
51915;SDS011;37942;53.218;6.548;2022-11-15T08:46:45;79.13;;;45.58;;
51915;SDS011;37942;53.218;6.548;2022-11-15T08:49:11;79.55;;;46.08;;
51915;SDS011;37942;53.218;6.548;2022-11-15T08:51:37;75.78;;;44.45;;
51915;SDS011;37942;53.218;6.548;2022-11-15T08:54:04;75.72;;;44.30;;
51915;SDS011;37942;53.218;6.548;2022-11-15T08:56:30;72.88;;;42.78;;
51915;SDS011;37942;53.218;6.548;2022-11-15T08:58:56;62.63;;;40.47;;
51915;SDS011;37942;53.218;6.548;2022-11-15T09:01:22;64.72;;;38.08;;
51915;SDS011;37942;53.218;6.548;2022-11-15T09:03:48;68.15;;;40.45;;
51915;SDS011;37942;53.218;6.548;2022-11-15T09:06:14;61.78;;;38.97;;
51915;SDS011;37942;53.218;6.548;2022-11-15T09:08:40;63.63;;;39.65;;
51915;SDS011;37942;53.218;6.548;2022-11-15T09:11:07;58.17;;;36.15;;
51915;SDS011;37942;53.218;6.548;2022-11-15T09:13:34;65.10;;;38.45;;
51915;SDS011;37942;53.218;6.548;2022-11-15T09:16:02;62.65;;;37.50;;
51915;SDS011;37942;53.218;6.548;2022-11-15T09:18:29;60.75;;;37.22;;
51915;SDS011;37942;53.218;6.548;2022-11-15T09:20:58;56.13;;;35.80;;
51915;SDS011;37942;53.218;6.548;2022-11-15T09:23:25;57.80;;;36.20;;
51915;SDS011;37942;53.218;6.548;2022-11-15T09:25:51;53.22;;;34.75;;
51915;SDS011;37942;53.218;6.548;2022-11-15T09:28:18;55.42;;;34.78;;
51915;SDS011;37942;53.218;6.548;2022-11-15T09:30:44;48.47;;;32.95;;
51915;SDS011;37942;53.218;6.548;2022-11-15T09:33:11;49.67;;;34.45;;
51915;SDS011;37942;53.218;6.548;2022-11-15T09:35:37;57.40;;;34.03;;
51915;SDS011;37942;53.218;6.548;2022-11-15T09:38:04;53.83;;;34.78;;
51915;SDS011;37942;53.218;6.548;2022-11-15T09:40:31;48.90;;;32.08;;
51915;SDS011;37942;53.218;6.548;2022-11-15T09:48:25;51.53;;;32.67;;
51915;SDS011;37942;53.218;6.548;2022-11-15T09:50:55;45.85;;;31.33;;
51915;SDS011;37942;53.218;6.548;2022-11-15T09:53:29;51.17;;;32.65;;
51915;SDS011;37942;53.218;6.548;2022-11-15T09:55:59;48.75;;;32.42;;
51915;SDS011;37942;53.218;6.548;2022-11-15T09:58:29;46.65;;;31.73;;
51915;SDS011;37942;53.218;6.548;2022-11-15T10:00:56;52.33;;;31.90;;
51915;SDS011;37942;53.218;6.548;2022-11-15T10:03:27;49.00;;;31.95;;
51915;SDS011;37942;53.218;6.548;2022-11-15T10:05:55;47.70;;;29.98;;
51915;SDS011;37942;53.218;6.548;2022-11-15T10:10:51;49.80;;;31.45;;
51915;SDS011;37942;53.218;6.548;2022-11-15T10:21:21;44.88;;;28.35;;
51915;SDS011;37942;53.218;6.548;2022-11-15T10:23:50;50.25;;;30.60;;
51915;SDS011;37942;53.218;6.548;2022-11-15T10:26:16;45.08;;;29.45;;
51915;SDS011;37942;53.218;6.548;2022-11-15T10:28:42;42.90;;;28.38;;
51915;SDS011;37942;53.218;6.548;2022-11-15T10:31:25;43.45;;;29.77;;
51915;SDS011;37942;53.218;6.548;2022-11-15T10:33:52;44.38;;;28.55;;
51915;SDS011;37942;53.218;6.548;2022-11-15T10:36:24;42.80;;;29.05;;
51915;SDS011;37942;53.218;6.548;2022-11-15T10:41:21;43.45;;;28.42;;
51915;SDS011;37942;53.218;6.548;2022-11-15T10:46:33;44.17;;;29.40;;
51915;SDS011;37942;53.218;6.548;2022-11-15T10:54:10;39.00;;;26.90;;
51915;SDS011;37942;53.218;6.548;2022-11-15T10:56:36;43.65;;;28.02;;
51915;SDS011;37942;53.218;6.548;2022-11-15T10:59:03;41.83;;;27.92;;
51915;SDS011;37942;53.218;6.548;2022-11-15T11:01:29;42.25;;;27.08;;
51915;SDS011;37942;53.218;6.548;2022-11-15T11:06:31;44.75;;;28.50;;
51915;SDS011;37942;53.218;6.548;2022-11-15T11:09:20;42.45;;;28.25;;
51915;SDS011;37942;53.218;6.548;2022-11-15T11:11:48;42.10;;;27.50;;
51915;SDS011;37942;53.218;6.548;2022-11-15T11:24:50;48.03;;;31.65;;
51915;SDS011;37942;53.218;6.548;2022-11-15T11:30:20;48.58;;;31.13;;
51915;SDS011;37942;53.218;6.548;2022-11-15T11:35:20;42.53;;;29.65;;
51915;SDS011;37942;53.218;6.548;2022-11-15T11:37:52;45.95;;;29.88;;
51915;SDS011;37942;53.218;6.548;2022-11-15T11:50:23;47.47;;;29.98;;
51915;SDS011;37942;53.218;6.548;2022-11-15T11:55:26;43.35;;;26.70;;
51915;SDS011;37942;53.218;6.548;2022-11-15T12:00:20;36.10;;;23.48;;
51915;SDS011;37942;53.218;6.548;2022-11-15T12:02:56;31.90;;;22.33;;
51915;SDS011;37942;53.218;6.548;2022-11-15T12:08:30;29.50;;;20.65;;
51915;SDS011;37942;53.218;6.548;2022-11-15T12:11:03;27.80;;;19.35;;
51915;SDS011;37942;53.218;6.548;2022-11-15T12:13:32;29.92;;;19.17;;
51915;SDS011;37942;53.218;6.548;2022-11-15T12:16:15;26.67;;;18.08;;
51915;SDS011;37942;53.218;6.548;2022-11-15T12:18:49;25.95;;;18.35;;
51915;SDS011;37942;53.218;6.548;2022-11-15T12:23:46;25.45;;;16.98;;
51915;SDS011;37942;53.218;6.548;2022-11-15T12:26:20;23.23;;;14.48;;
51915;SDS011;37942;53.218;6.548;2022-11-15T12:28:49;22.00;;;13.77;;
51915;SDS011;37942;53.218;6.548;2022-11-15T12:31:18;19.90;;;9.98;;
51915;SDS011;37942;53.218;6.548;2022-11-15T12:33:47;17.35;;;8.25;;
51915;SDS011;37942;53.218;6.548;2022-11-15T12:39:01;15.45;;;8.07;;
51915;SDS011;37942;53.218;6.548;2022-11-15T12:41:35;16.95;;;9.90;;
51915;SDS011;37942;53.218;6.548;2022-11-15T12:44:01;16.95;;;9.30;;
51915;SDS011;37942;53.218;6.548;2022-11-15T12:51:21;19.05;;;8.05;;
51915;SDS011;37942;53.218;6.548;2022-11-15T12:53:48;15.18;;;7.75;;
51915;SDS011;37942;53.218;6.548;2022-11-15T13:01:10;16.23;;;7.75;;
51915;SDS011;37942;53.218;6.548;2022-11-15T13:04:45;16.27;;;8.75;;
51915;SDS011;37942;53.218;6.548;2022-11-15T13:11:54;15.85;;;8.27;;
51915;SDS011;37942;53.218;6.548;2022-11-15T13:17:25;15.25;;;8.55;;
51915;SDS011;37942;53.218;6.548;2022-11-15T13:22:24;16.55;;;7.55;;
51915;SDS011;37942;53.218;6.548;2022-11-15T13:28:08;17.02;;;7.80;;
51915;SDS011;37942;53.218;6.548;2022-11-15T13:30:35;16.63;;;7.53;;
51915;SDS011;37942;53.218;6.548;2022-11-15T13:33:09;20.27;;;8.18;;
51915;SDS011;37942;53.218;6.548;2022-11-15T13:35:38;16.30;;;8.23;;
51915;SDS011;37942;53.218;6.548;2022-11-15T13:38:05;13.35;;;7.70;;
51915;SDS011;37942;53.218;6.548;2022-11-15T13:40:35;15.73;;;7.53;;
51915;SDS011;37942;53.218;6.548;2022-11-15T13:48:31;15.57;;;7.60;;
51915;SDS011;37942;53.218;6.548;2022-11-15T13:50:59;17.85;;;7.53;;
51915;SDS011;37942;53.218;6.548;2022-11-15T13:53:25;14.35;;;7.38;;
51915;SDS011;37942;53.218;6.548;2022-11-15T13:55:52;15.48;;;6.90;;
51915;SDS011;37942;53.218;6.548;2022-11-15T13:58:19;15.68;;;7.35;;
51915;SDS011;37942;53.218;6.548;2022-11-15T14:00:46;14.50;;;6.90;;
51915;SDS011;37942;53.218;6.548;2022-11-15T14:03:19;15.68;;;6.90;;
51915;SDS011;37942;53.218;6.548;2022-11-15T14:06:07;13.40;;;6.40;;
51915;SDS011;37942;53.218;6.548;2022-11-15T14:08:32;13.98;;;6.78;;
51915;SDS011;37942;53.218;6.548;2022-11-15T14:11:08;15.77;;;6.32;;
51915;SDS011;37942;53.218;6.548;2022-11-15T14:13:35;14.00;;;6.38;;
51915;SDS011;37942;53.218;6.548;2022-11-15T14:16:20;14.82;;;6.93;;
51915;SDS011;37942;53.218;6.548;2022-11-15T14:18:48;12.93;;;6.80;;
51915;SDS011;37942;53.218;6.548;2022-11-15T14:21:14;13.90;;;5.90;;
51915;SDS011;37942;53.218;6.548;2022-11-15T14:23:41;14.23;;;6.20;;
51915;SDS011;37942;53.218;6.548;2022-11-15T14:28:33;14.80;;;5.93;;
51915;SDS011;37942;53.218;6.548;2022-11-15T14:31:04;12.55;;;5.97;;
51915;SDS011;37942;53.218;6.548;2022-11-15T14:33:33;17.83;;;6.15;;
51915;SDS011;37942;53.218;6.548;2022-11-15T14:36:03;16.52;;;6.43;;
51915;SDS011;37942;53.218;6.548;2022-11-15T14:38:30;13.23;;;6.00;;
51915;SDS011;37942;53.218;6.548;2022-11-15T14:40:56;15.90;;;6.05;;
51915;SDS011;37942;53.218;6.548;2022-11-15T14:43:23;17.77;;;7.43;;
51915;SDS011;37942;53.218;6.548;2022-11-15T14:48:15;18.23;;;6.13;;
51915;SDS011;37942;53.218;6.548;2022-11-15T14:50:41;13.75;;;5.88;;
51915;SDS011;37942;53.218;6.548;2022-11-15T14:53:11;13.10;;;6.32;;
51915;SDS011;37942;53.218;6.548;2022-11-15T14:55:38;13.80;;;5.90;;
51915;SDS011;37942;53.218;6.548;2022-11-15T14:58:04;11.77;;;5.28;;
51915;SDS011;37942;53.218;6.548;2022-11-15T15:00:33;12.10;;;4.60;;
51915;SDS011;37942;53.218;6.548;2022-11-15T15:03:00;12.43;;;4.70;;
51915;SDS011;37942;53.218;6.548;2022-11-15T15:05:33;12.23;;;4.40;;
51915;SDS011;37942;53.218;6.548;2022-11-15T15:07:59;10.57;;;4.00;;
51915;SDS011;37942;53.218;6.548;2022-11-15T15:10:26;11.52;;;4.75;;
51915;SDS011;37942;53.218;6.548;2022-11-15T15:12:53;12.35;;;4.63;;
51915;SDS011;37942;53.218;6.548;2022-11-15T15:15:40;10.85;;;4.35;;
51915;SDS011;37942;53.218;6.548;2022-11-15T15:18:06;14.43;;;5.00;;
51915;SDS011;37942;53.218;6.548;2022-11-15T15:20:34;11.48;;;4.80;;
51915;SDS011;37942;53.218;6.548;2022-11-15T15:23:00;11.75;;;5.00;;
51915;SDS011;37942;53.218;6.548;2022-11-15T15:25:33;13.52;;;5.47;;
51915;SDS011;37942;53.218;6.548;2022-11-15T15:28:02;11.15;;;5.07;;
51915;SDS011;37942;53.218;6.548;2022-11-15T15:30:29;12.50;;;5.57;;
51915;SDS011;37942;53.218;6.548;2022-11-15T15:32:55;13.70;;;4.78;;
51915;SDS011;37942;53.218;6.548;2022-11-15T15:35:21;11.05;;;4.50;;
51915;SDS011;37942;53.218;6.548;2022-11-15T15:37:48;10.90;;;5.50;;
51915;SDS011;37942;53.218;6.548;2022-11-15T15:40:19;15.43;;;6.25;;
51915;SDS011;37942;53.218;6.548;2022-11-15T15:42:45;13.55;;;6.72;;
51915;SDS011;37942;53.218;6.548;2022-11-15T15:47:37;25.60;;;16.77;;
51915;SDS011;37942;53.218;6.548;2022-11-15T15:50:09;23.55;;;14.63;;
51915;SDS011;37942;53.218;6.548;2022-11-15T15:52:37;16.05;;;10.32;;
51915;SDS011;37942;53.218;6.548;2022-11-15T15:55:04;17.55;;;11.48;;
51915;SDS011;37942;53.218;6.548;2022-11-15T15:57:30;23.35;;;15.43;;
51915;SDS011;37942;53.218;6.548;2022-11-15T15:59:56;31.02;;;20.83;;
51915;SDS011;37942;53.218;6.548;2022-11-15T16:02:22;15.85;;;9.45;;
51915;SDS011;37942;53.218;6.548;2022-11-15T16:04:48;15.00;;;10.02;;
51915;SDS011;37942;53.218;6.548;2022-11-15T16:07:20;16.02;;;10.38;;
51915;SDS011;37942;53.218;6.548;2022-11-15T16:09:48;13.98;;;7.95;;
51915;SDS011;37942;53.218;6.548;2022-11-15T16:12:31;13.43;;;7.80;;
51915;SDS011;37942;53.218;6.548;2022-11-15T16:14:57;14.10;;;8.70;;
51915;SDS011;37942;53.218;6.548;2022-11-15T16:19:49;13.60;;;8.02;;
51915;SDS011;37942;53.218;6.548;2022-11-15T16:22:16;14.38;;;7.68;;
51915;SDS011;37942;53.218;6.548;2022-11-15T16:24:42;13.85;;;7.80;;
51915;SDS011;37942;53.218;6.548;2022-11-15T16:27:15;14.05;;;8.25;;
51915;SDS011;37942;53.218;6.548;2022-11-15T16:29:41;12.43;;;8.02;;
51915;SDS011;37942;53.218;6.548;2022-11-15T16:32:08;14.55;;;8.75;;
51915;SDS011;37942;53.218;6.548;2022-11-15T16:34:34;14.45;;;8.20;;
51915;SDS011;37942;53.218;6.548;2022-11-15T16:37:00;13.23;;;8.55;;
51915;SDS011;37942;53.218;6.548;2022-11-15T16:39:26;14.57;;;8.43;;
51915;SDS011;37942;53.218;6.548;2022-11-15T16:41:55;15.73;;;8.95;;
51915;SDS011;37942;53.218;6.548;2022-11-15T16:44:22;14.40;;;7.90;;
51915;SDS011;37942;53.218;6.548;2022-11-15T16:46:49;15.40;;;8.77;;
51915;SDS011;37942;53.218;6.548;2022-11-15T16:49:18;16.20;;;8.43;;
51915;SDS011;37942;53.218;6.548;2022-11-15T16:51:46;14.63;;;8.32;;
51915;SDS011;37942;53.218;6.548;2022-11-15T16:54:13;13.70;;;8.38;;
51915;SDS011;37942;53.218;6.548;2022-11-15T16:56:39;14.30;;;8.88;;
51915;SDS011;37942;53.218;6.548;2022-11-15T16:59:05;16.00;;;8.68;;
51915;SDS011;37942;53.218;6.548;2022-11-15T17:01:36;12.85;;;7.78;;
51915;SDS011;37942;53.218;6.548;2022-11-15T17:04:11;14.30;;;7.72;;
51915;SDS011;37942;53.218;6.548;2022-11-15T17:06:41;14.52;;;7.50;;
51915;SDS011;37942;53.218;6.548;2022-11-15T17:09:17;13.15;;;7.57;;
51915;SDS011;37942;53.218;6.548;2022-11-15T17:11:44;11.93;;;6.40;;
51915;SDS011;37942;53.218;6.548;2022-11-15T17:14:10;13.60;;;7.03;;
51915;SDS011;37942;53.218;6.548;2022-11-15T17:16:37;13.25;;;6.40;;
51915;SDS011;37942;53.218;6.548;2022-11-15T17:19:10;12.27;;;6.50;;
51915;SDS011;37942;53.218;6.548;2022-11-15T17:21:36;13.35;;;6.45;;
51915;SDS011;37942;53.218;6.548;2022-11-15T17:24:03;15.13;;;6.57;;
51915;SDS011;37942;53.218;6.548;2022-11-15T17:26:29;11.38;;;5.80;;
51915;SDS011;37942;53.218;6.548;2022-11-15T17:28:55;13.77;;;6.20;;
51915;SDS011;37942;53.218;6.548;2022-11-15T17:33:47;14.75;;;5.93;;
51915;SDS011;37942;53.218;6.548;2022-11-15T17:36:13;13.07;;;5.78;;
51915;SDS011;37942;53.218;6.548;2022-11-15T17:38:42;10.88;;;5.38;;
51915;SDS011;37942;53.218;6.548;2022-11-15T17:41:09;10.57;;;4.90;;
51915;SDS011;37942;53.218;6.548;2022-11-15T17:43:36;10.15;;;5.20;;
51915;SDS011;37942;53.218;6.548;2022-11-15T17:46:03;10.30;;;4.90;;
51915;SDS011;37942;53.218;6.548;2022-11-15T17:48:30;12.20;;;5.68;;
51915;SDS011;37942;53.218;6.548;2022-11-15T17:50:56;12.63;;;5.90;;
51915;SDS011;37942;53.218;6.548;2022-11-15T17:53:23;12.77;;;5.80;;
51915;SDS011;37942;53.218;6.548;2022-11-15T17:58:15;10.30;;;5.15;;
51915;SDS011;37942;53.218;6.548;2022-11-15T18:00:45;13.18;;;5.47;;
51915;SDS011;37942;53.218;6.548;2022-11-15T18:03:11;9.48;;;5.05;;
51915;SDS011;37942;53.218;6.548;2022-11-15T18:05:37;13.50;;;4.78;;
51915;SDS011;37942;53.218;6.548;2022-11-15T18:08:05;12.48;;;5.10;;
51915;SDS011;37942;53.218;6.548;2022-11-15T18:10:31;14.70;;;5.75;;
51915;SDS011;37942;53.218;6.548;2022-11-15T18:12:57;10.07;;;4.88;;
51915;SDS011;37942;53.218;6.548;2022-11-15T18:15:23;10.65;;;5.00;;
51915;SDS011;37942;53.218;6.548;2022-11-15T18:17:49;11.00;;;5.05;;
51915;SDS011;37942;53.218;6.548;2022-11-15T18:20:15;13.25;;;5.60;;
51915;SDS011;37942;53.218;6.548;2022-11-15T18:22:41;10.73;;;5.18;;
51915;SDS011;37942;53.218;6.548;2022-11-15T18:25:07;14.20;;;7.05;;
51915;SDS011;37942;53.218;6.548;2022-11-15T18:27:34;12.52;;;5.15;;
51915;SDS011;37942;53.218;6.548;2022-11-15T18:30:00;11.32;;;5.43;;
51915;SDS011;37942;53.218;6.548;2022-11-15T18:32:26;10.60;;;5.07;;
51915;SDS011;37942;53.218;6.548;2022-11-15T18:37:18;12.77;;;5.10;;
51915;SDS011;37942;53.218;6.548;2022-11-15T18:39:44;10.40;;;4.90;;
51915;SDS011;37942;53.218;6.548;2022-11-15T18:44:37;17.02;;;8.57;;
51915;SDS011;37942;53.218;6.548;2022-11-15T18:47:03;11.73;;;6.20;;
51915;SDS011;37942;53.218;6.548;2022-11-15T18:49:29;12.57;;;5.50;;
51915;SDS011;37942;53.218;6.548;2022-11-15T18:51:55;12.55;;;5.53;;
51915;SDS011;37942;53.218;6.548;2022-11-15T18:54:21;10.07;;;4.88;;
51915;SDS011;37942;53.218;6.548;2022-11-15T18:56:47;12.05;;;6.97;;
51915;SDS011;37942;53.218;6.548;2022-11-15T18:59:13;12.27;;;5.57;;
51915;SDS011;37942;53.218;6.548;2022-11-15T19:01:41;10.85;;;5.63;;
51915;SDS011;37942;53.218;6.548;2022-11-15T19:04:15;11.73;;;5.45;;
51915;SDS011;37942;53.218;6.548;2022-11-15T19:06:45;9.57;;;5.00;;
51915;SDS011;37942;53.218;6.548;2022-11-15T19:09:13;10.50;;;5.05;;
51915;SDS011;37942;53.218;6.548;2022-11-15T19:11:40;11.50;;;5.28;;
51915;SDS011;37942;53.218;6.548;2022-11-15T19:16:33;11.90;;;4.85;;
51915;SDS011;37942;53.218;6.548;2022-11-15T19:19:03;12.73;;;5.40;;
51915;SDS011;37942;53.218;6.548;2022-11-15T19:21:29;10.98;;;5.15;;
51915;SDS011;37942;53.218;6.548;2022-11-15T19:23:56;13.00;;;5.50;;
51915;SDS011;37942;53.218;6.548;2022-11-15T19:28:49;14.07;;;5.22;;
51915;SDS011;37942;53.218;6.548;2022-11-15T19:31:16;13.55;;;5.28;;
51915;SDS011;37942;53.218;6.548;2022-11-15T19:33:43;11.60;;;5.22;;
51915;SDS011;37942;53.218;6.548;2022-11-15T19:36:14;11.13;;;4.65;;
51915;SDS011;37942;53.218;6.548;2022-11-15T19:38:40;11.52;;;5.03;;
51915;SDS011;37942;53.218;6.548;2022-11-15T19:41:07;12.00;;;4.80;;
51915;SDS011;37942;53.218;6.548;2022-11-15T19:43:34;10.80;;;4.53;;
51915;SDS011;37942;53.218;6.548;2022-11-15T19:46:02;11.10;;;5.28;;
51915;SDS011;37942;53.218;6.548;2022-11-15T19:48:29;12.50;;;5.25;;
51915;SDS011;37942;53.218;6.548;2022-11-15T19:50:58;14.02;;;5.28;;
51915;SDS011;37942;53.218;6.548;2022-11-15T19:53:25;13.10;;;5.25;;
51915;SDS011;37942;53.218;6.548;2022-11-15T19:58:20;12.10;;;6.80;;
51915;SDS011;37942;53.218;6.548;2022-11-15T20:03:12;12.20;;;5.05;;
51915;SDS011;37942;53.218;6.548;2022-11-15T20:05:38;18.20;;;6.15;;
51915;SDS011;37942;53.218;6.548;2022-11-15T20:08:04;10.18;;;4.95;;
51915;SDS011;37942;53.218;6.548;2022-11-15T20:10:32;15.15;;;5.63;;
51915;SDS011;37942;53.218;6.548;2022-11-15T20:12:58;13.38;;;5.43;;
51915;SDS011;37942;53.218;6.548;2022-11-15T20:15:24;12.07;;;5.40;;
51915;SDS011;37942;53.218;6.548;2022-11-15T20:17:50;11.75;;;5.68;;
51915;SDS011;37942;53.218;6.548;2022-11-15T20:20:16;16.63;;;5.88;;
51915;SDS011;37942;53.218;6.548;2022-11-15T20:22:42;11.75;;;5.55;;
51915;SDS011;37942;53.218;6.548;2022-11-15T20:25:08;10.77;;;5.43;;
51915;SDS011;37942;53.218;6.548;2022-11-15T20:27:35;12.85;;;5.63;;
51915;SDS011;37942;53.218;6.548;2022-11-15T20:30:01;12.10;;;5.05;;
51915;SDS011;37942;53.218;6.548;2022-11-15T20:32:29;12.15;;;5.13;;
51915;SDS011;37942;53.218;6.548;2022-11-15T20:34:55;12.63;;;5.45;;
51915;SDS011;37942;53.218;6.548;2022-11-15T20:37:22;12.50;;;5.70;;
51915;SDS011;37942;53.218;6.548;2022-11-15T20:39:48;12.60;;;5.25;;
51915;SDS011;37942;53.218;6.548;2022-11-15T20:42:14;11.57;;;5.88;;
51915;SDS011;37942;53.218;6.548;2022-11-15T20:44:40;11.55;;;5.63;;
51915;SDS011;37942;53.218;6.548;2022-11-15T20:47:06;13.75;;;5.43;;
51915;SDS011;37942;53.218;6.548;2022-11-15T20:49:32;12.07;;;6.10;;
51915;SDS011;37942;53.218;6.548;2022-11-15T20:51:58;12.65;;;5.82;;
51915;SDS011;37942;53.218;6.548;2022-11-15T20:54:24;12.02;;;6.20;;
51915;SDS011;37942;53.218;6.548;2022-11-15T20:56:50;15.02;;;6.00;;
51915;SDS011;37942;53.218;6.548;2022-11-15T20:59:16;13.95;;;6.20;;
51915;SDS011;37942;53.218;6.548;2022-11-15T21:01:42;12.77;;;6.00;;
51915;SDS011;37942;53.218;6.548;2022-11-15T21:04:10;12.38;;;6.10;;
51915;SDS011;37942;53.218;6.548;2022-11-15T21:06:37;12.27;;;6.38;;
51915;SDS011;37942;53.218;6.548;2022-11-15T21:09:03;12.80;;;6.53;;
51915;SDS011;37942;53.218;6.548;2022-11-15T21:11:48;14.00;;;6.38;;
51915;SDS011;37942;53.218;6.548;2022-11-15T21:14:33;12.52;;;6.43;;
51915;SDS011;37942;53.218;6.548;2022-11-15T21:16:59;12.07;;;6.63;;
51915;SDS011;37942;53.218;6.548;2022-11-15T21:19:25;14.15;;;7.40;;
51915;SDS011;37942;53.218;6.548;2022-11-15T21:21:51;12.57;;;7.25;;
51915;SDS011;37942;53.218;6.548;2022-11-15T21:24:17;16.58;;;7.35;;
51915;SDS011;37942;53.218;6.548;2022-11-15T21:26:44;14.30;;;7.65;;
51915;SDS011;37942;53.218;6.548;2022-11-15T21:29:10;14.85;;;7.85;;
51915;SDS011;37942;53.218;6.548;2022-11-15T21:31:41;15.20;;;8.45;;
51915;SDS011;37942;53.218;6.548;2022-11-15T21:34:08;15.77;;;9.00;;
51915;SDS011;37942;53.218;6.548;2022-11-15T21:36:34;15.75;;;8.27;;
51915;SDS011;37942;53.218;6.548;2022-11-15T21:39:00;14.65;;;8.30;;
51915;SDS011;37942;53.218;6.548;2022-11-15T21:41:26;14.73;;;8.23;;
51915;SDS011;37942;53.218;6.548;2022-11-15T21:43:59;16.48;;;9.07;;
51915;SDS011;37942;53.218;6.548;2022-11-15T21:46:25;18.20;;;9.60;;
51915;SDS011;37942;53.218;6.548;2022-11-15T21:48:53;17.17;;;9.70;;
51915;SDS011;37942;53.218;6.548;2022-11-15T21:51:19;16.20;;;9.63;;
51915;SDS011;37942;53.218;6.548;2022-11-15T21:53:46;15.23;;;8.98;;
51915;SDS011;37942;53.218;6.548;2022-11-15T21:56:12;15.60;;;9.35;;
51915;SDS011;37942;53.218;6.548;2022-11-15T21:58:38;16.40;;;9.30;;
51915;SDS011;37942;53.218;6.548;2022-11-15T22:01:04;16.27;;;9.88;;
51915;SDS011;37942;53.218;6.548;2022-11-15T22:03:49;15.40;;;8.98;;
51915;SDS011;37942;53.218;6.548;2022-11-15T22:06:15;17.05;;;9.43;;
51915;SDS011;37942;53.218;6.548;2022-11-15T22:11:08;18.88;;;9.65;;
51915;SDS011;37942;53.218;6.548;2022-11-15T22:13:34;16.48;;;9.43;;
51915;SDS011;37942;53.218;6.548;2022-11-15T22:18:26;15.80;;;9.23;;
51915;SDS011;37942;53.218;6.548;2022-11-15T22:20:56;19.13;;;10.60;;
51915;SDS011;37942;53.218;6.548;2022-11-15T22:23:23;17.02;;;10.63;;
51915;SDS011;37942;53.218;6.548;2022-11-15T22:25:49;17.30;;;9.45;;
51915;SDS011;37942;53.218;6.548;2022-11-15T22:28:16;17.92;;;10.18;;
51915;SDS011;37942;53.218;6.548;2022-11-15T22:30:45;16.85;;;10.15;;
51915;SDS011;37942;53.218;6.548;2022-11-15T22:33:11;19.33;;;11.10;;
51915;SDS011;37942;53.218;6.548;2022-11-15T22:35:38;17.95;;;10.23;;
51915;SDS011;37942;53.218;6.548;2022-11-15T22:38:04;18.98;;;10.43;;
51915;SDS011;37942;53.218;6.548;2022-11-15T22:40:31;18.17;;;10.15;;
51915;SDS011;37942;53.218;6.548;2022-11-15T22:42:57;16.40;;;9.60;;
51915;SDS011;37942;53.218;6.548;2022-11-15T22:45:23;17.33;;;10.07;;
51915;SDS011;37942;53.218;6.548;2022-11-15T22:47:49;15.48;;;10.23;;
51915;SDS011;37942;53.218;6.548;2022-11-15T22:50:15;15.88;;;9.98;;
51915;SDS011;37942;53.218;6.548;2022-11-15T22:52:41;15.27;;;10.85;;
51915;SDS011;37942;53.218;6.548;2022-11-15T22:55:07;18.90;;;11.30;;
51915;SDS011;37942;53.218;6.548;2022-11-15T22:57:33;18.55;;;11.65;;
51915;SDS011;37942;53.218;6.548;2022-11-15T23:00:06;17.02;;;11.50;;
51915;SDS011;37942;53.218;6.548;2022-11-15T23:02:36;16.40;;;11.27;;
51915;SDS011;37942;53.218;6.548;2022-11-15T23:05:02;20.63;;;11.38;;
51915;SDS011;37942;53.218;6.548;2022-11-15T23:09:54;20.38;;;12.10;;
51915;SDS011;37942;53.218;6.548;2022-11-15T23:12:40;18.58;;;11.27;;
51915;SDS011;37942;53.218;6.548;2022-11-15T23:15:25;18.63;;;12.68;;
51915;SDS011;37942;53.218;6.548;2022-11-15T23:17:51;17.75;;;11.65;;
51915;SDS011;37942;53.218;6.548;2022-11-15T23:20:17;20.48;;;13.05;;
51915;SDS011;37942;53.218;6.548;2022-11-15T23:22:43;19.88;;;12.52;;
51915;SDS011;37942;53.218;6.548;2022-11-15T23:25:12;20.95;;;13.30;;
51915;SDS011;37942;53.218;6.548;2022-11-15T23:27:38;20.42;;;13.23;;
51915;SDS011;37942;53.218;6.548;2022-11-15T23:30:04;20.08;;;12.90;;
51915;SDS011;37942;53.218;6.548;2022-11-15T23:32:49;21.42;;;13.45;;
51915;SDS011;37942;53.218;6.548;2022-11-15T23:35:34;19.65;;;13.38;;
51915;SDS011;37942;53.218;6.548;2022-11-15T23:38:00;20.48;;;12.73;;
51915;SDS011;37942;53.218;6.548;2022-11-15T23:40:26;17.67;;;12.65;;
51915;SDS011;37942;53.218;6.548;2022-11-15T23:42:52;21.00;;;13.88;;
51915;SDS011;37942;53.218;6.548;2022-11-15T23:45:18;21.15;;;13.88;;
51915;SDS011;37942;53.218;6.548;2022-11-15T23:47:44;20.20;;;13.38;;
51915;SDS011;37942;53.218;6.548;2022-11-15T23:50:10;21.55;;;14.52;;
51915;SDS011;37942;53.218;6.548;2022-11-15T23:52:36;22.48;;;16.08;;
51915;SDS011;37942;53.218;6.548;2022-11-15T23:55:02;22.40;;;14.95;;
51915;SDS011;37942;53.218;6.548;2022-11-15T23:57:29;23.38;;;15.95;;
51915;SDS011;37942;53.218;6.548;2022-11-15T23:59:55;23.48;;;16.00;;
